Time,TemperatureF,DewpointF,PressureIn,WindDirection,WindDirectionDegrees,WindSpeedMPH,WindSpeedGustMPH,Humidity,HourlyPrecipIn,Conditions,Clouds,dailyrainin,SoftwareType,DateUTC
2013-03-17 00:00:00,31.5,30.0,30.09,NNE,23,6.9,8.7,94,2.59,,,0.00,WUHU216HW,2013-03-17 04:00:00,
2013-03-17 00:05:00,31.5,30.0,30.07,NNE,23,4.0,8.3,94,2.59,,,0.00,WUHU216HW,2013-03-17 04:05:00,
2013-03-17 00:10:00,31.7,30.2,30.07,NNE,23,3.4,10.3,94,2.59,,,0.00,WUHU216HW,2013-03-17 04:10:00,
2013-03-17 00:15:00,31.9,30.3,30.06,NNE,23,4.9,10.5,94,2.59,,,0.00,WUHU216HW,2013-03-17 04:15:00,
2013-03-17 00:20:00,31.7,30.2,30.06,NNE,23,4.0,10.5,94,2.59,,,0.00,WUHU216HW,2013-03-17 04:20:00,
2013-03-17 00:25:00,31.5,30.0,30.07,NNE,23,2.5,9.2,94,2.59,,,0.00,WUHU216HW,2013-03-17 04:25:00,
2013-03-17 00:30:00,31.5,30.0,30.07,NNE,23,1.3,9.2,94,2.59,,,0.00,WUHU216HW,2013-03-17 04:30:00,
2013-03-17 00:35:00,31.5,30.0,30.08,NNE,23,8.5,8.5,94,2.59,,,0.00,WUHU216HW,2013-03-17 04:35:00,
2013-03-17 00:40:00,31.3,29.8,30.08,NNE,23,6.7,8.9,94,2.59,,,0.00,WUHU216HW,2013-03-17 04:40:00,
2013-03-17 00:45:00,31.3,29.8,30.08,NNE,23,6.3,8.9,94,2.59,,,0.00,WUHU216HW,2013-03-17 04:45:00,
2013-03-17 00:50:00,31.1,29.9,30.08,NNE,23,2.5,9.6,95,2.59,,,0.00,WUHU216HW,2013-03-17 04:50:00,
2013-03-17 00:55:00,31.1,29.9,30.07,NNE,23,2.9,9.6,95,2.59,,,0.00,WUHU216HW,2013-03-17 04:55:00,
2013-03-17 01:00:00,31.1,29.9,30.07,NNE,23,5.4,8.7,95,2.59,,,0.00,WUHU216HW,2013-03-17 05:00:00,
2013-03-17 01:05:00,31.0,29.7,30.06,NNE,23,1.1,8.7,95,2.59,,,0.00,WUHU216HW,2013-03-17 05:05:00,
2013-03-17 01:10:00,31.0,29.7,30.05,NNE,23,4.5,7.2,95,2.59,,,0.00,WUHU216HW,2013-03-17 05:10:00,
2013-03-17 01:15:00,31.0,29.7,30.05,NNE,23,1.8,6.3,95,2.59,,,0.00,WUHU216HW,2013-03-17 05:15:00,
2013-03-17 01:20:00,31.0,29.7,30.06,NNE,23,0.4,7.6,95,2.59,,,0.00,WUHU216HW,2013-03-17 05:20:00,
2013-03-17 01:25:00,31.0,29.7,30.07,NNE,23,0.4,7.6,95,2.59,,,0.00,WUHU216HW,2013-03-17 05:25:00,
2013-03-17 01:30:00,31.0,29.7,30.07,NNE,23,5.4,6.9,95,2.59,,,0.00,WUHU216HW,2013-03-17 05:30:00,
2013-03-17 01:35:00,31.0,29.7,30.07,NNE,23,3.8,6.9,95,2.59,,,0.00,WUHU216HW,2013-03-17 05:35:00,
2013-03-17 01:40:00,31.1,29.9,30.08,NNE,23,0.9,6.7,95,2.59,,,0.00,WUHU216HW,2013-03-17 05:40:00,
2013-03-17 01:45:00,31.1,29.9,30.07,NNE,23,0.0,5.4,95,2.59,,,0.00,WUHU216HW,2013-03-17 05:45:00,
2013-03-17 01:50:00,31.0,29.7,30.07,NNE,23,0.4,4.9,95,2.59,,,0.00,WUHU216HW,2013-03-17 05:50:00,
2013-03-17 01:55:00,31.0,29.7,30.06,NNE,23,0.9,2.5,95,2.59,,,0.00,WUHU216HW,2013-03-17 05:55:00,
2013-03-17 02:00:00,31.1,29.8,30.05,NNE,23,1.3,2.9,95,2.56,,,0.00,WUHU216HW,2013-03-17 06:00:00,
2013-03-17 02:05:00,31.1,29.9,30.05,NNE,23,0.9,2.9,95,4.59,,,0.00,WUHU216HW,2013-03-17 06:05:00,
2013-03-17 02:10:00,31.0,29.7,30.05,NNE,23,0.4,2.2,95,4.59,,,0.00,WUHU216HW,2013-03-17 06:10:00,
2013-03-17 02:15:00,31.0,29.7,30.06,NNE,23,2.7,2.7,95,4.59,,,0.00,WUHU216HW,2013-03-17 06:15:00,
2013-03-17 02:20:00,31.0,29.7,30.06,NNE,23,2.5,6.7,95,4.59,,,0.00,WUHU216HW,2013-03-17 06:20:00,
2013-03-17 02:25:00,31.0,29.7,30.06,NNE,23,0.4,6.7,95,4.59,,,0.00,WUHU216HW,2013-03-17 06:25:00,
2013-03-17 02:30:00,31.0,29.7,30.07,NNE,23,1.8,2.5,95,4.59,,,0.00,WUHU216HW,2013-03-17 06:30:00,
2013-03-17 02:35:00,31.0,29.7,30.07,NNE,23,0.7,3.4,95,4.59,,,0.00,WUHU216HW,2013-03-17 06:35:00,
2013-03-17 02:40:00,31.0,29.7,30.06,NNE,23,0.4,3.4,95,4.59,,,0.00,WUHU216HW,2013-03-17 06:40:00,
2013-03-17 02:45:00,30.8,29.5,30.06,NNE,23,0.9,3.1,95,4.59,,,0.00,WUHU216HW,2013-03-17 06:45:00,
2013-03-17 02:50:00,30.8,29.5,30.05,NNE,23,1.3,4.7,95,4.59,,,0.00,WUHU216HW,2013-03-17 06:50:00,
2013-03-17 02:55:00,30.8,29.5,30.04,NNE,23,0.9,5.4,95,4.59,,,0.00,WUHU216HW,2013-03-17 06:55:00,
2013-03-17 03:00:00,30.6,29.3,30.05,NNE,23,0.4,5.4,95,2.59,,,0.00,WUHU216HW,2013-03-17 07:00:00,
2013-03-17 03:05:00,30.6,29.3,30.05,NNE,23,3.6,6.5,95,2.59,,,0.00,WUHU216HW,2013-03-17 07:05:00,
2013-03-17 03:10:00,30.6,29.3,30.06,NNE,23,0.4,6.5,95,2.59,,,0.00,WUHU216HW,2013-03-17 07:10:00,
2013-03-17 03:15:00,30.6,29.3,30.06,NNE,23,5.4,6.0,95,2.59,,,0.00,WUHU216HW,2013-03-17 07:15:00,
2013-03-17 03:20:00,30.6,29.3,30.07,NNE,23,0.7,6.9,95,2.59,,,0.00,WUHU216HW,2013-03-17 07:20:00,
2013-03-17 03:25:00,30.6,29.3,30.06,NNE,23,4.0,6.9,95,2.59,,,0.00,WUHU216HW,2013-03-17 07:25:00,
2013-03-17 03:30:00,30.6,29.3,30.06,NNE,23,5.1,7.4,95,2.59,,,0.00,WUHU216HW,2013-03-17 07:30:00,
2013-03-17 03:35:00,30.4,29.2,30.05,NNE,23,8.1,8.7,95,2.59,,,0.00,WUHU216HW,2013-03-17 07:35:00,
2013-03-17 03:40:00,30.4,29.2,30.04,NNE,23,1.1,8.9,95,2.59,,,0.00,WUHU216HW,2013-03-17 07:40:00,
2013-03-17 03:45:00,30.2,29.0,30.04,NNE,23,4.3,8.9,95,2.59,,,0.00,WUHU216HW,2013-03-17 07:45:00,
2013-03-17 03:50:00,30.2,29.0,30.05,NNE,23,7.2,8.3,95,2.59,,,0.00,WUHU216HW,2013-03-17 07:50:00,
2013-03-17 03:55:00,30.2,29.0,30.05,NNE,23,5.4,7.2,95,2.59,,,0.00,WUHU216HW,2013-03-17 07:55:00,
2013-03-17 04:00:00,30.2,29.0,30.05,NNE,23,5.4,7.6,95,2.59,,,0.00,WUHU216HW,2013-03-17 08:00:00,
2013-03-17 04:05:00,30.1,28.8,30.06,NNE,23,4.0,7.6,95,2.59,,,0.00,WUHU216HW,2013-03-17 08:05:00,
2013-03-17 04:10:00,30.1,28.8,30.06,NNE,23,0.9,7.2,95,2.59,,,0.00,WUHU216HW,2013-03-17 08:10:00,
2013-03-17 04:15:00,30.1,28.8,30.06,NNE,23,0.2,6.7,95,2.59,,,0.00,WUHU216HW,2013-03-17 08:15:00,
2013-03-17 04:20:00,30.1,28.8,30.06,NNE,23,5.1,6.9,95,2.59,,,0.00,WUHU216HW,2013-03-17 08:20:00,
2013-03-17 04:25:00,30.1,28.8,30.06,NNE,23,1.6,6.9,95,2.59,,,0.00,WUHU216HW,2013-03-17 08:25:00,
2013-03-17 04:30:00,30.1,28.8,30.06,NNE,23,4.7,6.3,95,2.59,,,0.00,WUHU216HW,2013-03-17 08:30:00,
2013-03-17 04:35:00,30.1,28.8,30.05,NNE,23,6.5,6.5,95,2.59,,,0.00,WUHU216HW,2013-03-17 08:35:00,
2013-03-17 04:40:00,30.1,28.8,30.05,NNE,23,2.7,6.5,95,2.59,,,0.00,WUHU216HW,2013-03-17 08:40:00,
2013-03-17 04:45:00,30.1,28.8,30.07,NNE,23,3.4,6.5,95,2.59,,,0.00,WUHU216HW,2013-03-17 08:45:00,
2013-03-17 04:50:00,30.1,28.8,30.07,NNE,23,4.0,5.6,95,2.59,,,0.00,WUHU216HW,2013-03-17 08:50:00,
2013-03-17 04:55:00,30.1,28.8,30.07,NNE,23,6.3,6.3,95,2.59,,,0.00,WUHU216HW,2013-03-17 08:55:00,
2013-03-17 05:00:00,30.2,29.0,30.08,NNE,23,0.7,6.3,95,2.59,,,0.00,WUHU216HW,2013-03-17 09:00:00,
2013-03-17 05:05:00,30.2,29.0,30.07,NNE,23,3.1,6.3,95,2.59,,,0.00,WUHU216HW,2013-03-17 09:05:00,
2013-03-17 05:10:00,30.2,29.0,30.07,NNE,23,3.6,3.8,95,2.59,,,0.00,WUHU216HW,2013-03-17 09:10:00,
2013-03-17 05:15:00,30.2,29.0,30.07,NNE,23,4.3,4.3,95,2.59,,,0.00,WUHU216HW,2013-03-17 09:15:00,
2013-03-17 05:20:00,30.2,29.0,30.07,NNE,23,3.4,4.3,95,2.59,,,0.00,WUHU216HW,2013-03-17 09:20:00,
2013-03-17 05:25:00,30.2,29.0,30.07,NNE,23,2.5,4.7,95,2.59,,,0.00,WUHU216HW,2013-03-17 09:25:00,
2013-03-17 05:30:00,30.4,29.2,30.07,NNE,23,3.6,5.6,95,2.59,,,0.00,WUHU216HW,2013-03-17 09:30:00,
2013-03-17 05:35:00,30.4,29.2,30.07,NNE,23,3.4,5.6,95,2.59,,,0.00,WUHU216HW,2013-03-17 09:35:00,
2013-03-17 05:40:00,30.4,29.2,30.07,NNE,23,2.2,4.5,95,2.59,,,0.00,WUHU216HW,2013-03-17 09:40:00,
2013-03-17 05:45:00,30.6,29.3,30.08,NNE,23,4.0,4.0,95,2.59,,,0.00,WUHU216HW,2013-03-17 09:45:00,
2013-03-17 05:50:00,30.6,29.3,30.08,NNE,23,1.8,5.1,95,2.59,,,0.00,WUHU216HW,2013-03-17 09:50:00,
2013-03-17 05:55:00,30.6,29.3,30.08,NNE,23,2.5,5.1,95,2.59,,,0.00,WUHU216HW,2013-03-17 09:55:00,
2013-03-17 06:00:00,30.8,29.5,30.09,NNE,23,4.3,5.1,95,2.59,,,0.00,WUHU216HW,2013-03-17 10:00:00,
2013-03-17 06:05:00,30.8,29.5,30.10,NNE,23,1.8,5.1,95,2.59,,,0.00,WUHU216HW,2013-03-17 10:05:00,
2013-03-17 06:10:00,30.8,29.5,30.11,NNE,23,3.4,4.7,95,2.59,,,0.00,WUHU216HW,2013-03-17 10:10:00,
2013-03-17 06:15:00,30.8,29.5,30.12,NNE,23,3.1,4.0,95,2.59,,,0.00,WUHU216HW,2013-03-17 10:15:00,
2013-03-17 06:20:00,30.8,29.5,30.12,NNE,23,2.5,4.0,95,2.59,,,0.00,WUHU216HW,2013-03-17 10:20:00,
2013-03-17 06:25:00,31.0,29.7,30.13,NNE,23,3.4,5.4,95,2.59,,,0.00,WUHU216HW,2013-03-17 10:25:00,
2013-03-17 06:30:00,31.0,29.7,30.13,NNE,23,5.4,5.4,95,2.59,,,0.00,WUHU216HW,2013-03-17 10:30:00,
2013-03-17 06:35:00,30.8,29.5,30.13,NNE,23,3.6,5.4,95,2.59,,,0.00,WUHU216HW,2013-03-17 10:35:00,
2013-03-17 06:40:00,30.8,29.5,30.14,NNE,23,3.4,5.4,95,2.59,,,0.00,WUHU216HW,2013-03-17 10:40:00,
2013-03-17 06:45:00,30.8,29.5,30.13,NNE,23,6.3,7.2,95,2.59,,,0.00,WUHU216HW,2013-03-17 10:45:00,
2013-03-17 06:50:00,30.8,29.5,30.13,NNE,23,3.4,7.2,95,2.59,,,0.00,WUHU216HW,2013-03-17 10:50:00,
2013-03-17 06:55:00,30.8,29.5,30.14,NNE,23,5.8,6.9,95,2.59,,,0.00,WUHU216HW,2013-03-17 10:55:00,
2013-03-17 07:00:00,30.6,29.3,30.15,NNE,23,1.8,5.8,95,2.59,,,0.00,WUHU216HW,2013-03-17 11:00:00,
2013-03-17 07:05:00,30.6,29.3,30.15,NNE,23,2.0,5.1,95,2.59,,,0.00,WUHU216HW,2013-03-17 11:05:00,
2013-03-17 07:10:00,30.6,29.3,30.15,NNE,23,2.9,6.3,95,2.59,,,0.00,WUHU216HW,2013-03-17 11:10:00,
2013-03-17 07:15:00,30.6,29.3,30.15,NNE,23,4.0,6.3,95,2.59,,,0.00,WUHU216HW,2013-03-17 11:15:00,
2013-03-17 07:20:00,30.6,29.3,30.16,NNE,23,4.7,5.8,95,2.59,,,0.00,WUHU216HW,2013-03-17 11:20:00,
2013-03-17 07:25:00,30.6,29.3,30.16,NNE,23,4.7,5.6,95,2.59,,,0.00,WUHU216HW,2013-03-17 11:25:00,
2013-03-17 07:30:00,30.8,29.5,30.16,NNE,23,5.1,6.5,95,2.59,,,0.00,WUHU216HW,2013-03-17 11:30:00,
2013-03-17 07:35:00,30.8,29.5,30.16,NNE,23,3.6,7.6,95,2.59,,,0.00,WUHU216HW,2013-03-17 11:35:00,
2013-03-17 07:40:00,31.0,29.7,30.17,NNE,23,6.0,7.6,95,2.59,,,0.00,WUHU216HW,2013-03-17 11:40:00,
2013-03-17 07:45:00,31.0,29.7,30.17,NNE,23,1.8,6.9,95,2.59,,,0.00,WUHU216HW,2013-03-17 11:45:00,
2013-03-17 07:50:00,31.0,29.7,30.17,NNE,23,4.7,6.9,95,2.59,,,0.00,WUHU216HW,2013-03-17 11:50:00,
2013-03-17 07:55:00,31.0,29.7,30.18,NNE,23,1.1,5.8,95,2.59,,,0.00,WUHU216HW,2013-03-17 11:55:00,
2013-03-17 08:00:00,31.0,29.7,30.19,NNE,23,0.9,6.0,95,2.59,,,0.00,WUHU216HW,2013-03-17 12:00:00,
2013-03-17 08:05:00,30.8,29.5,30.19,NNE,23,2.9,6.0,95,2.59,,,0.00,WUHU216HW,2013-03-17 12:05:00,
2013-03-17 08:10:00,30.8,29.5,30.19,NNE,23,1.8,6.3,95,2.59,,,0.00,WUHU216HW,2013-03-17 12:10:00,
2013-03-17 08:15:00,30.6,29.3,30.20,NNE,23,3.1,6.3,95,2.59,,,0.00,WUHU216HW,2013-03-17 12:15:00,
2013-03-17 08:20:00,30.6,29.3,30.19,NNE,23,1.8,6.3,95,2.59,,,0.00,WUHU216HW,2013-03-17 12:20:00,
2013-03-17 08:25:00,30.6,29.3,30.19,NNE,23,5.4,6.3,95,2.59,,,0.00,WUHU216HW,2013-03-17 12:25:00,
2013-03-17 08:30:00,30.6,29.3,30.19,NNE,23,1.1,5.4,95,2.59,,,0.00,WUHU216HW,2013-03-17 12:30:00,
2013-03-17 08:35:00,30.6,29.3,30.20,NNE,23,0.9,5.4,95,2.59,,,0.00,WUHU216HW,2013-03-17 12:35:00,
2013-03-17 08:40:00,30.6,29.3,30.19,NNE,23,3.4,6.0,95,2.59,,,0.00,WUHU216HW,2013-03-17 12:40:00,
2013-03-17 08:45:00,30.6,29.3,30.20,NNE,23,3.4,6.3,95,2.59,,,0.00,WUHU216HW,2013-03-17 12:45:00,
2013-03-17 08:50:00,30.6,29.3,30.20,NNE,23,0.4,6.3,95,2.59,,,0.00,WUHU216HW,2013-03-17 12:50:00,
2013-03-17 08:55:00,30.6,29.3,30.21,NNE,23,1.1,4.7,95,2.59,,,0.00,WUHU216HW,2013-03-17 12:55:00,
2013-03-17 09:00:00,30.6,29.3,30.21,NNE,23,0.4,4.7,95,2.59,,,0.00,WUHU216HW,2013-03-17 13:00:00,
2013-03-17 09:05:00,30.6,29.3,30.21,NNE,23,5.8,7.2,95,2.59,,,0.00,WUHU216HW,2013-03-17 13:05:00,
2013-03-17 09:10:00,30.6,29.3,30.21,NNE,23,3.1,7.8,95,2.59,,,0.00,WUHU216HW,2013-03-17 13:10:00,
2013-03-17 09:15:00,30.6,29.3,30.21,NNE,23,3.4,7.8,95,2.59,,,0.00,WUHU216HW,2013-03-17 13:15:00,
2013-03-17 09:20:00,30.6,29.3,30.22,NNE,23,1.1,6.3,95,2.59,,,0.00,WUHU216HW,2013-03-17 13:20:00,
2013-03-17 09:25:00,30.6,29.3,30.22,NNE,23,5.4,6.3,95,2.59,,,0.00,WUHU216HW,2013-03-17 13:25:00,
2013-03-17 09:30:00,30.6,29.3,30.23,NNE,23,1.1,5.4,95,2.59,,,0.00,WUHU216HW,2013-03-17 13:30:00,
2013-03-17 09:35:00,30.6,29.3,30.23,NNE,23,3.1,4.5,95,2.59,,,0.00,WUHU216HW,2013-03-17 13:35:00,
2013-03-17 09:40:00,30.6,29.3,30.23,NNE,23,0.7,6.9,95,2.59,,,0.00,WUHU216HW,2013-03-17 13:40:00,
2013-03-17 09:45:00,30.6,29.3,30.24,NNE,23,0.9,6.9,95,2.59,,,0.00,WUHU216HW,2013-03-17 13:45:00,
2013-03-17 09:50:00,30.6,29.3,30.24,NNE,23,0.9,6.5,95,2.59,,,0.00,WUHU216HW,2013-03-17 13:50:00,
2013-03-17 09:55:00,30.8,29.5,30.25,NNE,23,2.7,6.5,95,2.59,,,0.00,WUHU216HW,2013-03-17 13:55:00,
2013-03-17 10:00:00,30.8,29.5,30.25,NNE,23,2.0,6.7,95,2.59,,,0.00,WUHU216HW,2013-03-17 14:00:00,
2013-03-17 10:05:00,30.8,29.5,30.25,NNE,23,2.7,6.7,95,2.59,,,0.00,WUHU216HW,2013-03-17 14:05:00,
2013-03-17 10:10:00,31.0,29.7,30.25,NNE,23,1.8,5.6,95,2.59,,,0.00,WUHU216HW,2013-03-17 14:10:00,
2013-03-17 10:15:00,31.0,29.7,30.25,NNE,23,2.0,5.4,95,2.59,,,0.00,WUHU216HW,2013-03-17 14:15:00,
2013-03-17 10:20:00,30.8,29.5,30.25,NNE,23,1.1,6.3,95,2.59,,,0.00,WUHU216HW,2013-03-17 14:20:00,
2013-03-17 10:25:00,31.0,29.7,30.25,NNE,23,0.7,6.3,95,2.59,,,0.00,WUHU216HW,2013-03-17 14:25:00,
2013-03-17 10:30:00,31.0,29.7,30.25,NNE,23,2.9,6.9,95,2.59,,,0.00,WUHU216HW,2013-03-17 14:30:00,
2013-03-17 10:35:00,31.0,29.4,30.25,NNE,23,0.0,6.9,94,2.59,,,0.00,WUHU216HW,2013-03-17 14:35:00,
2013-03-17 10:40:00,31.1,29.6,30.25,NNE,23,1.8,4.7,94,2.59,,,0.00,WUHU216HW,2013-03-17 14:40:00,
2013-03-17 10:45:00,31.1,29.6,30.25,NNE,23,1.8,4.7,94,2.59,,,0.00,WUHU216HW,2013-03-17 14:45:00,
2013-03-17 10:50:00,31.1,29.6,30.25,NNE,23,2.5,6.3,94,2.59,,,0.00,WUHU216HW,2013-03-17 14:50:00,
2013-03-17 10:55:00,31.3,29.5,30.25,NNE,23,1.1,6.3,93,2.59,,,0.00,WUHU216HW,2013-03-17 14:55:00,
2013-03-17 11:00:00,31.3,29.5,30.25,NNE,23,4.7,5.1,93,2.59,,,0.00,WUHU216HW,2013-03-17 15:00:00,
2013-03-17 11:05:00,31.3,29.5,30.24,NNE,23,3.8,6.7,93,2.59,,,0.00,WUHU216HW,2013-03-17 15:05:00,
2013-03-17 11:10:00,31.3,29.5,30.24,NNE,23,0.7,6.7,93,2.59,,,0.00,WUHU216HW,2013-03-17 15:10:00,
2013-03-17 11:15:00,31.3,29.5,30.24,NNE,23,1.6,3.6,93,2.59,,,0.00,WUHU216HW,2013-03-17 15:15:00,
2013-03-17 11:20:00,31.3,29.5,30.24,NNE,23,1.3,5.4,93,2.59,,,0.00,WUHU216HW,2013-03-17 15:20:00,
2013-03-17 11:25:00,31.1,29.2,30.25,NNE,23,1.1,5.4,92,2.59,,,0.00,WUHU216HW,2013-03-17 15:25:00,
2013-03-17 11:30:00,31.0,29.0,30.25,NNE,23,2.0,5.4,92,2.59,,,0.00,WUHU216HW,2013-03-17 15:30:00,
2013-03-17 11:35:00,30.8,29.0,30.25,NNE,23,2.5,5.4,93,2.59,,,0.00,WUHU216HW,2013-03-17 15:35:00,
2013-03-17 11:40:00,31.0,29.2,30.26,NNE,23,1.1,5.6,93,2.59,,,0.00,WUHU216HW,2013-03-17 15:40:00,
2013-03-17 11:45:00,31.0,29.2,30.26,NNE,23,2.5,5.6,93,2.59,,,0.00,WUHU216HW,2013-03-17 15:45:00,
2013-03-17 11:50:00,30.8,29.0,30.27,NNE,23,2.2,3.4,93,2.59,,,0.00,WUHU216HW,2013-03-17 15:50:00,
2013-03-17 11:55:00,30.6,28.8,30.27,NNE,23,5.8,5.8,93,2.59,,,0.00,WUHU216HW,2013-03-17 15:55:00,
2013-03-17 12:00:00,30.2,28.4,30.27,NNE,23,0.9,5.8,93,2.59,,,0.00,WUHU216HW,2013-03-17 16:00:00,
2013-03-17 12:05:00,30.1,28.3,30.27,NNE,23,3.1,5.8,93,2.59,,,0.00,WUHU216HW,2013-03-17 16:05:00,
2013-03-17 12:10:00,30.1,28.3,30.27,NNE,23,4.3,7.4,93,2.59,,,0.00,WUHU216HW,2013-03-17 16:10:00,
2013-03-17 12:15:00,29.9,27.9,30.28,NNE,23,1.3,7.4,92,2.59,,,0.00,WUHU216HW,2013-03-17 16:15:00,
2013-03-17 12:20:00,29.9,27.9,30.27,NNE,23,6.0,6.9,92,2.59,,,0.00,WUHU216HW,2013-03-17 16:20:00,
2013-03-17 12:25:00,29.9,27.9,30.27,NNE,23,2.0,8.3,92,2.59,,,0.00,WUHU216HW,2013-03-17 16:25:00,
2013-03-17 12:30:00,29.9,27.9,30.27,NNE,23,1.3,8.3,92,2.59,,,0.00,WUHU216HW,2013-03-17 16:30:00,
2013-03-17 12:35:00,29.5,27.6,30.26,NNE,23,4.0,5.6,92,2.59,,,0.00,WUHU216HW,2013-03-17 16:35:00,
2013-03-17 12:40:00,29.5,27.6,30.27,NNE,23,4.0,6.3,92,2.59,,,0.00,WUHU216HW,2013-03-17 16:40:00,
2013-03-17 12:45:00,29.3,27.4,30.27,NNE,23,6.3,6.3,92,2.59,,,0.00,WUHU216HW,2013-03-17 16:45:00,
2013-03-17 12:50:00,29.5,27.6,30.27,NNE,23,4.5,6.3,92,2.59,,,0.00,WUHU216HW,2013-03-17 16:50:00,
2013-03-17 12:55:00,29.5,27.6,30.26,NNE,23,2.9,7.2,92,2.59,,,0.00,WUHU216HW,2013-03-17 16:55:00,
2013-03-17 13:00:00,29.7,27.7,30.26,NNE,23,1.1,7.2,92,2.59,,,0.00,WUHU216HW,2013-03-17 17:00:00,
2013-03-17 13:05:00,29.7,27.5,30.26,NNE,23,2.2,5.1,91,2.59,,,0.00,WUHU216HW,2013-03-17 17:05:00,
2013-03-17 13:10:00,29.9,27.4,30.26,NNE,23,3.4,5.8,90,2.59,,,0.00,WUHU216HW,2013-03-17 17:10:00,
2013-03-17 13:15:00,29.9,27.1,30.26,NNE,23,1.1,5.8,89,2.59,,,0.00,WUHU216HW,2013-03-17 17:15:00,
2013-03-17 13:20:00,30.1,27.0,30.25,NNE,23,4.0,4.9,88,2.59,,,0.00,WUHU216HW,2013-03-17 17:20:00,
2013-03-17 13:25:00,30.2,27.2,30.25,NNE,23,4.9,6.3,88,2.59,,,0.00,WUHU216HW,2013-03-17 17:25:00,
2013-03-17 13:30:00,30.4,27.4,30.25,NNE,23,2.0,6.3,88,2.59,,,0.00,WUHU216HW,2013-03-17 17:30:00,
2013-03-17 13:35:00,30.6,27.6,30.25,NNE,23,4.0,4.7,88,2.59,,,0.00,WUHU216HW,2013-03-17 17:35:00,
2013-03-17 13:40:00,30.6,27.2,30.25,NNE,23,0.0,4.5,87,2.59,,,0.00,WUHU216HW,2013-03-17 17:40:00,
2013-03-17 13:45:00,30.6,27.2,30.25,NNE,23,0.9,4.7,87,2.59,,,0.00,WUHU216HW,2013-03-17 17:45:00,
2013-03-17 13:50:00,30.8,27.7,30.25,NNE,23,1.1,4.7,88,2.59,,,0.00,WUHU216HW,2013-03-17 17:50:00,
2013-03-17 13:55:00,30.8,27.4,30.25,NNE,23,0.4,4.5,87,2.59,,,0.00,WUHU216HW,2013-03-17 17:55:00,
2013-03-17 14:00:00,30.6,27.2,30.25,NNE,23,3.6,4.0,87,2.59,,,0.00,WUHU216HW,2013-03-17 18:00:00,
2013-03-17 14:05:00,30.4,27.0,30.26,NNE,23,1.8,4.0,87,2.59,,,0.00,WUHU216HW,2013-03-17 18:05:00,
2013-03-17 14:10:00,30.1,26.4,30.25,NNE,23,2.5,4.7,86,2.59,,,0.00,WUHU216HW,2013-03-17 18:10:00,
2013-03-17 14:15:00,30.2,27.2,30.26,NNE,23,1.1,4.7,88,2.59,,,0.00,WUHU216HW,2013-03-17 18:15:00,
2013-03-17 14:20:00,30.2,26.8,30.26,NNE,23,2.5,5.8,87,2.59,,,0.00,WUHU216HW,2013-03-17 18:20:00,
2013-03-17 14:25:00,30.1,26.4,30.26,NNE,23,1.6,6.5,86,2.59,,,0.00,WUHU216HW,2013-03-17 18:25:00,
2013-03-17 14:30:00,29.9,26.2,30.26,NNE,23,4.3,6.5,86,2.59,,,0.00,WUHU216HW,2013-03-17 18:30:00,
2013-03-17 14:35:00,29.9,26.2,30.26,NNE,23,0.7,4.9,86,2.59,,,0.00,WUHU216HW,2013-03-17 18:35:00,
2013-03-17 14:40:00,30.1,26.4,30.26,NNE,23,0.4,4.3,86,2.59,,,0.00,WUHU216HW,2013-03-17 18:40:00,
2013-03-17 14:45:00,30.1,26.4,30.26,NNE,23,4.0,4.7,86,2.59,,,0.00,WUHU216HW,2013-03-17 18:45:00,
2013-03-17 14:50:00,30.1,26.4,30.25,NNE,23,3.8,4.7,86,2.59,,,0.00,WUHU216HW,2013-03-17 18:50:00,
2013-03-17 14:55:00,30.1,26.4,30.26,NNE,23,0.7,4.3,86,2.59,,,0.00,WUHU216HW,2013-03-17 18:55:00,
2013-03-17 15:00:00,30.1,26.1,30.26,NNE,23,2.5,4.7,85,2.59,,,0.00,WUHU216HW,2013-03-17 19:00:00,
2013-03-17 15:05:00,29.9,25.9,30.26,NNE,23,1.1,4.7,85,2.59,,,0.00,WUHU216HW,2013-03-17 19:05:00,
2013-03-17 15:10:00,30.1,25.8,30.26,NNE,23,1.3,4.7,84,2.59,,,0.00,WUHU216HW,2013-03-17 19:10:00,
2013-03-17 15:15:00,30.1,25.6,30.26,NNE,23,0.9,4.7,83,2.59,,,0.00,WUHU216HW,2013-03-17 19:15:00,
2013-03-17 15:20:00,30.2,26.0,30.26,NNE,23,1.6,4.7,84,2.59,,,0.00,WUHU216HW,2013-03-17 19:20:00,
2013-03-17 15:25:00,30.4,25.9,30.26,NNE,23,2.2,6.3,83,2.59,,,0.00,WUHU216HW,2013-03-17 19:25:00,
2013-03-17 15:30:00,30.4,25.6,30.26,NNE,23,1.8,6.3,82,2.59,,,0.00,WUHU216HW,2013-03-17 19:30:00,
2013-03-17 15:35:00,30.4,25.3,30.26,NNE,23,0.4,6.3,81,2.59,,,0.00,WUHU216HW,2013-03-17 19:35:00,
2013-03-17 15:40:00,30.4,25.3,30.26,NNE,23,1.3,6.5,81,2.59,,,0.00,WUHU216HW,2013-03-17 19:40:00,
2013-03-17 15:45:00,30.6,25.5,30.26,NNE,23,2.7,6.5,81,2.59,,,0.00,WUHU216HW,2013-03-17 19:45:00,
2013-03-17 15:50:00,30.6,25.5,30.26,NNE,23,2.2,6.3,81,2.59,,,0.00,WUHU216HW,2013-03-17 19:50:00,
2013-03-17 15:55:00,30.6,25.5,30.26,NNE,23,1.1,6.3,81,2.59,,,0.00,WUHU216HW,2013-03-17 19:55:00,
2013-03-17 16:00:00,30.6,25.2,30.26,NNE,23,1.3,5.6,80,2.59,,,0.00,WUHU216HW,2013-03-17 20:00:00,
2013-03-17 16:05:00,30.6,25.2,30.26,NNE,23,2.5,5.6,80,2.59,,,0.00,WUHU216HW,2013-03-17 20:05:00,
2013-03-17 16:10:00,30.6,24.8,30.26,NNE,23,4.0,4.5,79,2.59,,,0.00,WUHU216HW,2013-03-17 20:10:00,
2013-03-17 16:15:00,30.6,24.8,30.26,NNE,23,1.1,4.5,79,2.59,,,0.00,WUHU216HW,2013-03-17 20:15:00,
2013-03-17 16:20:00,30.6,24.8,30.26,NNE,23,2.5,5.4,79,2.59,,,0.00,WUHU216HW,2013-03-17 20:20:00,
2013-03-17 16:25:00,30.6,24.8,30.26,NNE,23,0.2,7.6,79,2.59,,,0.00,WUHU216HW,2013-03-17 20:25:00,
2013-03-17 16:30:00,30.6,24.8,30.26,NNE,23,1.6,7.6,79,2.59,,,0.00,WUHU216HW,2013-03-17 20:30:00,
2013-03-17 16:35:00,30.6,24.8,30.27,NNE,23,0.4,2.9,79,2.59,,,0.00,WUHU216HW,2013-03-17 20:35:00,
2013-03-17 16:40:00,30.6,25.2,30.27,NNE,23,2.9,2.9,80,2.59,,,0.00,WUHU216HW,2013-03-17 20:40:00,
2013-03-17 16:45:00,30.6,24.8,30.27,NNE,23,4.5,4.7,79,2.59,,,0.00,WUHU216HW,2013-03-17 20:45:00,
2013-03-17 16:50:00,30.4,24.7,30.27,NNE,23,3.6,4.7,79,2.59,,,0.00,WUHU216HW,2013-03-17 20:50:00,
2013-03-17 16:55:00,30.4,24.7,30.27,NNE,23,0.4,4.5,79,2.59,,,0.00,WUHU216HW,2013-03-17 20:55:00,
2013-03-17 17:00:00,30.4,24.7,30.27,NNE,23,0.2,3.6,79,2.59,,,0.00,WUHU216HW,2013-03-17 21:00:00,
2013-03-17 17:05:00,30.4,25.0,30.27,NNE,23,3.6,5.6,80,2.59,,,0.00,WUHU216HW,2013-03-17 21:05:00,
2013-03-17 17:10:00,30.6,24.8,30.27,NNE,23,5.1,5.6,79,2.59,,,0.00,WUHU216HW,2013-03-17 21:10:00,
2013-03-17 17:15:00,30.6,24.8,30.27,NNE,23,2.2,5.1,79,2.59,,,0.00,WUHU216HW,2013-03-17 21:15:00,
2013-03-17 17:20:00,30.6,24.8,30.27,NNE,23,0.7,3.8,79,2.59,,,0.00,WUHU216HW,2013-03-17 21:20:00,
2013-03-17 17:25:00,30.6,24.8,30.27,NNE,23,1.8,2.5,79,2.59,,,0.00,WUHU216HW,2013-03-17 21:25:00,
2013-03-17 17:30:00,30.6,24.8,30.27,NNE,23,0.7,3.6,79,2.59,,,0.00,WUHU216HW,2013-03-17 21:30:00,
2013-03-17 17:35:00,30.6,24.8,30.27,NNE,23,0.4,3.6,79,2.59,,,0.00,WUHU216HW,2013-03-17 21:35:00,
2013-03-17 17:40:00,30.6,24.8,30.28,NNE,23,0.7,2.5,79,2.59,,,0.00,WUHU216HW,2013-03-17 21:40:00,
2013-03-17 17:45:00,30.6,24.6,30.28,NNE,23,1.1,4.9,78,2.59,,,0.00,WUHU216HW,2013-03-17 21:45:00,
2013-03-17 17:50:00,30.6,24.6,30.28,NNE,23,0.4,4.9,78,2.59,,,0.00,WUHU216HW,2013-03-17 21:50:00,
2013-03-17 17:55:00,30.6,24.6,30.28,NNE,23,1.1,3.4,78,2.59,,,0.00,WUHU216HW,2013-03-17 21:55:00,
2013-03-17 18:00:00,30.4,24.4,30.28,NNE,23,0.9,3.4,78,2.59,,,0.00,WUHU216HW,2013-03-17 22:00:00,
2013-03-17 18:05:00,30.4,24.4,30.29,NNE,23,0.4,1.8,78,2.59,,,0.00,WUHU216HW,2013-03-17 22:05:00,
2013-03-17 18:10:00,30.4,24.4,30.29,NNE,23,0.4,2.0,78,2.59,,,0.00,WUHU216HW,2013-03-17 22:10:00,
2013-03-17 18:15:00,30.6,24.6,30.29,NNE,23,2.2,3.1,78,2.59,,,0.00,WUHU216HW,2013-03-17 22:15:00,
2013-03-17 18:20:00,30.4,24.4,30.29,NNE,23,1.1,3.1,78,2.59,,,0.00,WUHU216HW,2013-03-17 22:20:00,
2013-03-17 18:25:00,30.4,24.4,30.29,NNE,23,4.0,4.0,78,2.59,,,0.00,WUHU216HW,2013-03-17 22:25:00,
2013-03-17 18:30:00,30.4,24.4,30.29,NNE,23,1.1,4.0,78,2.59,,,0.00,WUHU216HW,2013-03-17 22:30:00,
2013-03-17 18:35:00,30.4,24.4,30.29,NNE,23,2.2,4.0,78,2.59,,,0.00,WUHU216HW,2013-03-17 22:35:00,
2013-03-17 18:40:00,30.4,24.0,30.29,NNE,23,0.2,2.7,77,2.59,,,0.00,WUHU216HW,2013-03-17 22:40:00,
2013-03-17 18:45:00,30.4,24.4,30.29,NNE,23,2.2,2.7,78,2.59,,,0.00,WUHU216HW,2013-03-17 22:45:00,
2013-03-17 18:50:00,30.4,24.4,30.30,NNE,23,0.7,2.5,78,2.59,,,0.00,WUHU216HW,2013-03-17 22:50:00,
2013-03-17 18:55:00,30.6,24.6,30.30,NNE,23,0.4,2.5,78,2.59,,,0.00,WUHU216HW,2013-03-17 22:55:00,
2013-03-17 19:00:00,30.6,24.6,30.30,NNE,23,0.0,0.7,78,2.59,,,0.00,WUHU216HW,2013-03-17 23:00:00,
2013-03-17 19:05:00,30.6,24.6,30.30,NNE,23,0.4,0.7,78,2.59,,,0.00,WUHU216HW,2013-03-17 23:05:00,
2013-03-17 19:10:00,30.6,24.6,30.30,NNE,23,1.3,1.3,78,2.59,,,0.00,WUHU216HW,2013-03-17 23:10:00,
2013-03-17 19:15:00,30.6,24.6,30.30,NNE,23,2.7,2.7,78,2.59,,,0.00,WUHU216HW,2013-03-17 23:15:00,
2013-03-17 19:20:00,30.6,24.2,30.30,NNE,23,0.2,2.7,77,2.59,,,0.00,WUHU216HW,2013-03-17 23:20:00,
2013-03-17 19:25:00,30.6,24.2,30.30,NNE,23,1.1,2.7,77,2.59,,,0.00,WUHU216HW,2013-03-17 23:25:00,
2013-03-17 19:30:00,30.6,24.6,30.30,NNE,23,0.4,1.8,78,2.59,,,0.00,WUHU216HW,2013-03-17 23:30:00,
2013-03-17 19:35:00,30.6,24.6,30.30,NNE,23,0.7,2.2,78,2.59,,,0.00,WUHU216HW,2013-03-17 23:35:00,
2013-03-17 19:40:00,30.6,24.6,30.31,NNE,23,0.0,2.2,78,2.59,,,0.00,WUHU216HW,2013-03-17 23:40:00,
2013-03-17 19:45:00,30.6,24.6,30.31,NNE,23,0.2,0.9,78,2.59,,,0.00,WUHU216HW,2013-03-17 23:45:00,
2013-03-17 19:50:00,30.6,24.6,30.31,NNE,23,0.0,0.2,78,2.59,,,0.00,WUHU216HW,2013-03-17 23:50:00,
2013-03-17 19:55:00,30.8,24.8,30.31,NNE,23,0.0,0.4,78,2.59,,,0.00,WUHU216HW,2013-03-17 23:55:00,
2013-03-17 20:00:00,30.8,24.8,30.31,NNE,23,0.0,0.4,78,2.59,,,0.00,WUHU216HW,2013-03-18 00:00:00,
2013-03-17 20:05:00,30.8,24.4,30.32,NNE,23,0.0,1.8,77,2.59,,,0.00,WUHU216HW,2013-03-18 00:05:00,
2013-03-17 20:10:00,30.8,24.4,30.32,NNE,23,0.7,1.8,77,2.59,,,0.00,WUHU216HW,2013-03-18 00:10:00,
2013-03-17 20:15:00,30.6,24.2,30.31,NNE,23,1.1,2.5,77,2.59,,,0.00,WUHU216HW,2013-03-18 00:15:00,
2013-03-17 20:20:00,30.6,24.2,30.31,NNE,23,2.5,2.5,77,2.59,,,0.00,WUHU216HW,2013-03-18 00:20:00,
2013-03-17 20:25:00,30.6,24.6,30.31,NNE,23,1.1,2.5,78,2.59,,,0.00,WUHU216HW,2013-03-18 00:25:00,
2013-03-17 20:30:00,30.6,24.6,30.32,NNE,23,0.0,2.5,78,2.59,,,0.00,WUHU216HW,2013-03-18 00:30:00,
2013-03-17 20:35:00,30.6,24.6,30.31,NNE,23,0.2,1.1,78,2.59,,,0.00,WUHU216HW,2013-03-18 00:35:00,
2013-03-17 20:40:00,30.6,24.6,30.31,NNE,23,1.6,1.8,78,2.59,,,0.00,WUHU216HW,2013-03-18 00:40:00,
2013-03-17 20:45:00,30.4,24.4,30.31,NNE,23,0.4,5.4,78,2.59,,,0.00,WUHU216HW,2013-03-18 00:45:00,
2013-03-17 20:50:00,30.2,24.5,30.31,NNE,23,0.0,5.4,79,2.59,,,0.00,WUHU216HW,2013-03-18 00:50:00,
2013-03-17 20:55:00,30.2,24.5,30.32,NNE,23,0.0,1.1,79,2.59,,,0.00,WUHU216HW,2013-03-18 00:55:00,
2013-03-17 21:00:00,30.2,24.5,30.32,NNE,23,0.0,2.5,79,2.59,,,0.00,WUHU216HW,2013-03-18 01:00:00,
2013-03-17 21:05:00,30.2,24.5,30.32,NNE,23,0.4,2.5,79,2.59,,,0.00,WUHU216HW,2013-03-18 01:05:00,
2013-03-17 21:10:00,30.2,24.5,30.32,NNE,23,0.2,1.8,79,2.59,,,0.00,WUHU216HW,2013-03-18 01:10:00,
2013-03-17 21:15:00,30.1,24.3,30.33,NNE,23,1.3,1.8,79,2.59,,,0.00,WUHU216HW,2013-03-18 01:15:00,
2013-03-17 21:20:00,30.1,24.7,30.33,NNE,23,1.1,1.8,80,2.59,,,0.00,WUHU216HW,2013-03-18 01:20:00,
2013-03-17 21:25:00,30.1,24.7,30.33,NNE,23,1.1,2.0,80,2.59,,,0.00,WUHU216HW,2013-03-18 01:25:00,
2013-03-17 21:30:00,30.1,24.7,30.33,NNE,23,0.2,2.2,80,2.59,,,0.00,WUHU216HW,2013-03-18 01:30:00,
2013-03-17 21:35:00,30.1,24.7,30.33,NNE,23,0.4,2.2,80,2.59,,,0.00,WUHU216HW,2013-03-18 01:35:00,
2013-03-17 21:40:00,29.9,24.8,30.33,NNE,23,0.9,2.0,81,2.59,,,0.00,WUHU216HW,2013-03-18 01:40:00,
2013-03-17 21:45:00,29.9,24.8,30.33,NNE,23,0.4,2.5,81,2.59,,,0.00,WUHU216HW,2013-03-18 01:45:00,
2013-03-17 21:50:00,29.5,24.7,30.33,NNE,23,1.3,2.5,82,2.59,,,0.00,WUHU216HW,2013-03-18 01:50:00,
2013-03-17 21:55:00,29.5,25.0,30.33,NNE,23,2.0,2.5,83,2.59,,,0.00,WUHU216HW,2013-03-18 01:55:00,
2013-03-17 22:00:00,29.3,24.9,30.33,NNE,23,1.3,2.5,83,2.59,,,0.00,WUHU216HW,2013-03-18 02:00:00,
2013-03-17 22:05:00,29.2,24.9,30.33,NNE,23,1.1,2.5,84,2.59,,,0.00,WUHU216HW,2013-03-18 02:05:00,
2013-03-17 22:10:00,29.2,24.9,30.33,NNE,23,2.9,2.9,84,2.59,,,0.00,WUHU216HW,2013-03-18 02:10:00,
2013-03-17 22:15:00,29.2,24.9,30.33,NNE,23,2.5,3.1,84,2.59,,,0.00,WUHU216HW,2013-03-18 02:15:00,
2013-03-17 22:20:00,29.2,24.9,30.33,NNE,23,2.7,3.4,84,2.59,,,0.00,WUHU216HW,2013-03-18 02:20:00,
2013-03-17 22:25:00,29.2,24.9,30.33,NNE,23,2.5,3.4,84,2.59,,,0.00,WUHU216HW,2013-03-18 02:25:00,
2013-03-17 22:30:00,29.2,24.7,30.33,NNE,23,2.2,3.4,83,2.59,,,0.00,WUHU216HW,2013-03-18 02:30:00,
2013-03-17 22:35:00,29.2,24.7,30.33,NNE,23,3.1,3.4,83,2.59,,,0.00,WUHU216HW,2013-03-18 02:35:00,
2013-03-17 22:40:00,29.2,24.3,30.33,NNE,23,1.1,4.7,82,2.59,,,0.00,WUHU216HW,2013-03-18 02:40:00,
2013-03-17 22:45:00,29.3,24.5,30.33,NNE,23,2.5,4.7,82,2.59,,,0.00,WUHU216HW,2013-03-18 02:45:00,
2013-03-17 22:50:00,29.3,24.2,30.34,NNE,23,2.0,4.5,81,2.59,,,0.00,WUHU216HW,2013-03-18 02:50:00,
2013-03-17 22:55:00,29.5,24.1,30.33,NNE,23,2.5,4.3,80,2.59,,,0.00,WUHU216HW,2013-03-18 02:55:00,
2013-03-17 23:00:00,29.5,23.8,30.34,NNE,23,3.6,5.6,79,2.59,,,0.00,WUHU216HW,2013-03-18 03:00:00,
2013-03-17 23:05:00,29.7,23.9,30.34,NNE,23,5.4,6.0,79,2.59,,,0.00,WUHU216HW,2013-03-18 03:05:00,
2013-03-17 23:10:00,29.7,23.9,30.34,NNE,23,2.2,6.0,79,2.59,,,0.00,WUHU216HW,2013-03-18 03:10:00,
2013-03-17 23:15:00,29.7,23.9,30.34,NNE,23,2.7,5.8,79,2.59,,,0.00,WUHU216HW,2013-03-18 03:15:00,
2013-03-17 23:20:00,29.9,23.9,30.35,NNE,23,2.2,4.0,78,2.59,,,0.00,WUHU216HW,2013-03-18 03:20:00,
2013-03-17 23:25:00,29.9,23.9,30.35,NNE,23,1.8,4.0,78,2.59,,,0.00,WUHU216HW,2013-03-18 03:25:00,
2013-03-17 23:30:00,29.9,23.9,30.34,NNE,23,2.2,4.0,78,2.59,,,0.00,WUHU216HW,2013-03-18 03:30:00,
2013-03-17 23:35:00,29.9,23.9,30.34,NNE,23,1.1,6.3,78,2.59,,,0.00,WUHU216HW,2013-03-18 03:35:00,
2013-03-17 23:40:00,29.9,23.5,30.35,NNE,23,1.6,6.3,77,2.59,,,0.00,WUHU216HW,2013-03-18 03:40:00,
2013-03-17 23:45:00,29.9,23.5,30.34,NNE,23,1.1,4.3,77,2.59,,,0.00,WUHU216HW,2013-03-18 03:45:00,
2013-03-17 23:50:00,29.9,23.5,30.34,NNE,23,1.3,3.4,77,2.59,,,0.00,WUHU216HW,2013-03-18 03:50:00,
2013-03-17 23:55:00,29.9,23.9,30.34,NNE,23,1.8,3.4,78,2.59,,,0.00,WUHU216HW,2013-03-18 03:55:00,